Airfield :
LOGIN :

Register | Disclaimer

   EN    FR    IT 

 










Legend :    VFR   Marginal VFR   IFR   Intensive IFR   Very Intensive IFR
Visi :
Ceiling :
>= 8 km
>= 3000ft
5 to 8 km
1000 to 3000 ft
1500m to 5 km
500 to 1000 ft
800 to 1500m
200 to 500 ft
< 800m
< 200 ft
Symbols :   Thunderstorms  Fog  Heavy snow  Heavy precipitations  Wind > 20 kt
SIGMETs :     Misc.  Thunderstorms  Icing  Turbulence  Mountain Waves  Volcanic Ashes






- Airport Elevation : 364 ft
- IATA code : FRA


EDDF - Frankfurt Int.

CURRENT METAR :
  • 232250Z 02008KT CAVOK 12/11 Q1010 NOSIG

EXPIRED METARs :
  • 232220Z 02007KT CAVOK 13/11 Q1010 NOSIG
  • 232150Z 03006KT CAVOK 12/11 Q1011 NOSIG
  • 232120Z 02008KT 9999 FEW017 12/11 Q1011 NOSIG
  • 232050Z 02007KT 9999 FEW017 13/12 Q1011 NOSIG
  • 232020Z 05007KT 360V070 9999 FEW017 13/11 Q1011 NOSIG

TAF AMD TAF EDDF
Valid from the 23 at 19:00 until the 25 at 00:00 UTC


231929Z 2319/2424 06005KT 9999 SCT015
TEMPO 2323/2410 2500 BR OVC012
PROB30
TEMPO 2400/2408 0500 FG BKN003
BECMG 2401/2403 VRB03KT
BECMG 2408/2410 22006KT



MET'MAP, your aeronautical weather chart ! - Copyright ORBIFLY December 2007 - Disclaimer

ORBIFLY MET'MAP TEAM :

Programming & Development : Alexandra Zaïnal
Concept & Development : Baudouin d'Aumeries
Co-Development & Prog : Marc-Olivier Méhu
Technical & hardware support : Manuel Goepfert

Contact : metmap@orbifly.com




SOURCES & CREDITS :

   NOAA